sensor_id;sensor_type;location;lat;lon;timestamp;P1;durP1;ratioP1;P2;durP2;ratioP2
21546;SDS011;41275;51.912;4.388;2024-01-16T00:04:48;3.88;;;0.50;;
21546;SDS011;41275;51.912;4.388;2024-01-16T00:10:09;8.97;;;0.77;;
21546;SDS011;41275;51.912;4.388;2024-01-16T00:15:31;4.18;;;0.90;;
21546;SDS011;41275;51.912;4.388;2024-01-16T00:20:52;5.70;;;0.60;;
21546;SDS011;41275;51.912;4.388;2024-01-16T00:26:22;7.65;;;0.70;;
21546;SDS011;41275;51.912;4.388;2024-01-16T00:31:44;3.53;;;0.65;;
21546;SDS011;41275;51.912;4.388;2024-01-16T00:37:05;3.03;;;0.85;;
21546;SDS011;41275;51.912;4.388;2024-01-16T00:42:26;3.95;;;0.60;;
21546;SDS011;41275;51.912;4.388;2024-01-16T00:47:47;1.70;;;0.40;;
21546;SDS011;41275;51.912;4.388;2024-01-16T00:53:09;6.13;;;0.50;;
21546;SDS011;41275;51.912;4.388;2024-01-16T00:58:30;2.07;;;0.43;;
21546;SDS011;41275;51.912;4.388;2024-01-16T01:03:51;4.30;;;0.70;;
21546;SDS011;41275;51.912;4.388;2024-01-16T01:09:13;2.28;;;0.38;;
21546;SDS011;41275;51.912;4.388;2024-01-16T01:14:34;2.38;;;0.40;;
21546;SDS011;41275;51.912;4.388;2024-01-16T01:19:55;4.73;;;0.50;;
21546;SDS011;41275;51.912;4.388;2024-01-16T01:25:16;6.15;;;0.60;;
21546;SDS011;41275;51.912;4.388;2024-01-16T01:30:37;3.03;;;0.40;;
21546;SDS011;41275;51.912;4.388;2024-01-16T01:35:59;4.80;;;0.40;;
21546;SDS011;41275;51.912;4.388;2024-01-16T01:41:20;2.10;;;0.25;;
21546;SDS011;41275;51.912;4.388;2024-01-16T01:46:41;2.17;;;0.35;;
21546;SDS011;41275;51.912;4.388;2024-01-16T01:52:03;2.95;;;0.40;;
21546;SDS011;41275;51.912;4.388;2024-01-16T01:57:25;2.08;;;0.45;;
21546;SDS011;41275;51.912;4.388;2024-01-16T02:02:47;4.32;;;0.70;;
21546;SDS011;41275;51.912;4.388;2024-01-16T02:08:08;1.70;;;0.60;;
21546;SDS011;41275;51.912;4.388;2024-01-16T02:13:30;4.13;;;0.43;;
21546;SDS011;41275;51.912;4.388;2024-01-16T02:18:51;3.22;;;0.60;;
21546;SDS011;41275;51.912;4.388;2024-01-16T02:24:13;6.90;;;0.70;;
21546;SDS011;41275;51.912;4.388;2024-01-16T02:29:40;2.80;;;0.55;;
21546;SDS011;41275;51.912;4.388;2024-01-16T02:35:04;3.20;;;0.50;;
21546;SDS011;41275;51.912;4.388;2024-01-16T02:40:26;1.65;;;0.50;;
21546;SDS011;41275;51.912;4.388;2024-01-16T02:45:47;4.78;;;0.88;;
21546;SDS011;41275;51.912;4.388;2024-01-16T02:51:08;3.70;;;0.50;;
21546;SDS011;41275;51.912;4.388;2024-01-16T02:56:30;2.45;;;0.55;;
21546;SDS011;41275;51.912;4.388;2024-01-16T03:01:51;2.60;;;0.40;;
21546;SDS011;41275;51.912;4.388;2024-01-16T03:07:12;3.03;;;0.53;;
21546;SDS011;41275;51.912;4.388;2024-01-16T03:12:33;5.17;;;1.00;;
21546;SDS011;41275;51.912;4.388;2024-01-16T03:17:55;2.70;;;0.40;;
21546;SDS011;41275;51.912;4.388;2024-01-16T03:23:16;4.38;;;0.70;;
21546;SDS011;41275;51.912;4.388;2024-01-16T03:28:37;2.83;;;0.50;;
21546;SDS011;41275;51.912;4.388;2024-01-16T03:33:59;2.80;;;0.70;;
21546;SDS011;41275;51.912;4.388;2024-01-16T03:39:20;4.95;;;0.90;;
21546;SDS011;41275;51.912;4.388;2024-01-16T03:44:42;6.00;;;0.55;;
21546;SDS011;41275;51.912;4.388;2024-01-16T03:50:03;4.90;;;0.80;;
21546;SDS011;41275;51.912;4.388;2024-01-16T03:55:25;5.45;;;0.60;;
21546;SDS011;41275;51.912;4.388;2024-01-16T04:00:46;9.38;;;1.10;;
21546;SDS011;41275;51.912;4.388;2024-01-16T04:06:15;6.03;;;0.88;;
21546;SDS011;41275;51.912;4.388;2024-01-16T04:11:37;6.10;;;0.90;;
21546;SDS011;41275;51.912;4.388;2024-01-16T04:16:58;4.10;;;0.80;;
21546;SDS011;41275;51.912;4.388;2024-01-16T04:22:19;3.17;;;1.02;;
21546;SDS011;41275;51.912;4.388;2024-01-16T04:27:41;2.17;;;1.15;;
21546;SDS011;41275;51.912;4.388;2024-01-16T04:33:02;3.25;;;0.77;;
21546;SDS011;41275;51.912;4.388;2024-01-16T04:38:24;6.03;;;1.35;;
21546;SDS011;41275;51.912;4.388;2024-01-16T04:43:45;4.50;;;1.10;;
21546;SDS011;41275;51.912;4.388;2024-01-16T04:49:06;7.20;;;0.90;;
21546;SDS011;41275;51.912;4.388;2024-01-16T04:54:28;2.17;;;0.85;;
21546;SDS011;41275;51.912;4.388;2024-01-16T04:59:49;6.47;;;1.02;;
21546;SDS011;41275;51.912;4.388;2024-01-16T05:05:11;5.40;;;1.43;;
21546;SDS011;41275;51.912;4.388;2024-01-16T05:10:32;3.95;;;0.90;;
21546;SDS011;41275;51.912;4.388;2024-01-16T05:15:53;5.28;;;1.40;;
21546;SDS011;41275;51.912;4.388;2024-01-16T05:21:14;3.75;;;1.10;;
21546;SDS011;41275;51.912;4.388;2024-01-16T05:26:36;4.73;;;1.00;;
21546;SDS011;41275;51.912;4.388;2024-01-16T05:31:57;5.07;;;0.97;;
21546;SDS011;41275;51.912;4.388;2024-01-16T05:37:21;5.93;;;1.02;;
21546;SDS011;41275;51.912;4.388;2024-01-16T05:42:42;3.78;;;1.35;;
21546;SDS011;41275;51.912;4.388;2024-01-16T05:48:03;6.55;;;1.30;;
21546;SDS011;41275;51.912;4.388;2024-01-16T05:53:25;10.13;;;1.50;;
21546;SDS011;41275;51.912;4.388;2024-01-16T05:58:46;3.00;;;1.20;;
21546;SDS011;41275;51.912;4.388;2024-01-16T06:04:07;4.87;;;1.20;;
21546;SDS011;41275;51.912;4.388;2024-01-16T06:09:28;5.25;;;1.42;;
21546;SDS011;41275;51.912;4.388;2024-01-16T06:14:50;7.75;;;1.48;;
21546;SDS011;41275;51.912;4.388;2024-01-16T06:20:11;3.10;;;1.00;;
21546;SDS011;41275;51.912;4.388;2024-01-16T06:25:32;4.32;;;0.90;;
21546;SDS011;41275;51.912;4.388;2024-01-16T06:30:53;4.30;;;0.87;;
21546;SDS011;41275;51.912;4.388;2024-01-16T06:36:15;4.20;;;0.93;;
21546;SDS011;41275;51.912;4.388;2024-01-16T06:41:37;3.03;;;0.87;;
21546;SDS011;41275;51.912;4.388;2024-01-16T06:46:58;3.78;;;0.90;;
21546;SDS011;41275;51.912;4.388;2024-01-16T06:52:19;3.30;;;0.88;;
21546;SDS011;41275;51.912;4.388;2024-01-16T06:57:40;4.97;;;0.95;;
21546;SDS011;41275;51.912;4.388;2024-01-16T07:03:01;5.47;;;0.70;;
21546;SDS011;41275;51.912;4.388;2024-01-16T07:08:23;2.72;;;0.90;;
21546;SDS011;41275;51.912;4.388;2024-01-16T07:13:45;8.52;;;1.20;;
21546;SDS011;41275;51.912;4.388;2024-01-16T07:19:06;3.83;;;0.80;;
21546;SDS011;41275;51.912;4.388;2024-01-16T07:24:27;2.07;;;0.53;;
21546;SDS011;41275;51.912;4.388;2024-01-16T07:29:48;4.97;;;0.93;;
21546;SDS011;41275;51.912;4.388;2024-01-16T07:35:09;2.47;;;0.63;;
21546;SDS011;41275;51.912;4.388;2024-01-16T07:40:31;4.82;;;1.10;;
21546;SDS011;41275;51.912;4.388;2024-01-16T07:45:52;1.80;;;0.68;;
21546;SDS011;41275;51.912;4.388;2024-01-16T07:51:13;5.50;;;1.20;;
21546;SDS011;41275;51.912;4.388;2024-01-16T07:56:37;2.67;;;1.10;;
21546;SDS011;41275;51.912;4.388;2024-01-16T08:01:58;5.00;;;0.77;;
21546;SDS011;41275;51.912;4.388;2024-01-16T08:07:20;8.10;;;1.10;;
21546;SDS011;41275;51.912;4.388;2024-01-16T08:12:41;4.70;;;1.00;;
21546;SDS011;41275;51.912;4.388;2024-01-16T08:18:02;5.63;;;0.98;;
21546;SDS011;41275;51.912;4.388;2024-01-16T08:23:23;3.40;;;0.80;;
21546;SDS011;41275;51.912;4.388;2024-01-16T08:28:45;2.20;;;0.60;;
21546;SDS011;41275;51.912;4.388;2024-01-16T08:34:06;2.45;;;0.90;;
21546;SDS011;41275;51.912;4.388;2024-01-16T08:39:28;2.55;;;0.77;;
21546;SDS011;41275;51.912;4.388;2024-01-16T08:44:49;2.40;;;0.70;;
21546;SDS011;41275;51.912;4.388;2024-01-16T08:50:10;1.75;;;0.40;;
21546;SDS011;41275;51.912;4.388;2024-01-16T08:55:32;8.35;;;0.50;;
21546;SDS011;41275;51.912;4.388;2024-01-16T09:00:53;3.67;;;0.50;;
21546;SDS011;41275;51.912;4.388;2024-01-16T09:06:14;1.93;;;0.40;;
21546;SDS011;41275;51.912;4.388;2024-01-16T09:11:35;1.97;;;0.30;;
21546;SDS011;41275;51.912;4.388;2024-01-16T09:16:56;3.28;;;0.70;;
21546;SDS011;41275;51.912;4.388;2024-01-16T09:22:18;3.30;;;0.65;;
21546;SDS011;41275;51.912;4.388;2024-01-16T09:27:39;2.60;;;0.43;;
21546;SDS011;41275;51.912;4.388;2024-01-16T09:33:00;2.42;;;0.68;;
21546;SDS011;41275;51.912;4.388;2024-01-16T09:38:22;1.35;;;0.52;;
21546;SDS011;41275;51.912;4.388;2024-01-16T09:43:43;4.25;;;0.77;;
21546;SDS011;41275;51.912;4.388;2024-01-16T09:49:06;2.53;;;0.40;;
21546;SDS011;41275;51.912;4.388;2024-01-16T09:54:28;2.13;;;0.50;;
21546;SDS011;41275;51.912;4.388;2024-01-16T09:59:50;3.10;;;0.70;;
21546;SDS011;41275;51.912;4.388;2024-01-16T10:05:12;3.03;;;0.50;;
21546;SDS011;41275;51.912;4.388;2024-01-16T10:10:34;4.45;;;0.40;;
21546;SDS011;41275;51.912;4.388;2024-01-16T10:15:55;1.83;;;0.77;;
21546;SDS011;41275;51.912;4.388;2024-01-16T10:21:20;5.22;;;0.70;;
21546;SDS011;41275;51.912;4.388;2024-01-16T10:26:43;2.53;;;0.45;;
21546;SDS011;41275;51.912;4.388;2024-01-16T10:32:06;2.47;;;0.50;;
21546;SDS011;41275;51.912;4.388;2024-01-16T10:37:30;4.13;;;0.60;;
21546;SDS011;41275;51.912;4.388;2024-01-16T10:43:02;1.23;;;0.40;;
21546;SDS011;41275;51.912;4.388;2024-01-16T10:48:24;4.15;;;0.55;;
21546;SDS011;41275;51.912;4.388;2024-01-16T10:53:46;3.30;;;0.57;;
21546;SDS011;41275;51.912;4.388;2024-01-16T10:59:31;2.23;;;0.77;;
21546;SDS011;41275;51.912;4.388;2024-01-16T11:05:02;2.57;;;0.47;;
21546;SDS011;41275;51.912;4.388;2024-01-16T11:10:26;3.28;;;0.70;;
21546;SDS011;41275;51.912;4.388;2024-01-16T11:15:48;2.73;;;0.50;;
21546;SDS011;41275;51.912;4.388;2024-01-16T11:21:11;1.00;;;0.30;;
21546;SDS011;41275;51.912;4.388;2024-01-16T11:26:34;0.30;;;0.20;;
21546;SDS011;41275;51.912;4.388;2024-01-16T11:32:00;2.70;;;0.40;;
21546;SDS011;41275;51.912;4.388;2024-01-16T11:37:25;1.27;;;0.40;;
21546;SDS011;41275;51.912;4.388;2024-01-16T11:42:53;2.53;;;0.35;;
21546;SDS011;41275;51.912;4.388;2024-01-16T11:48:16;1.70;;;0.30;;
21546;SDS011;41275;51.912;4.388;2024-01-16T11:53:38;2.70;;;0.43;;
21546;SDS011;41275;51.912;4.388;2024-01-16T12:04:38;1.30;;;0.33;;
21546;SDS011;41275;51.912;4.388;2024-01-16T12:10:00;1.60;;;0.20;;
21546;SDS011;41275;51.912;4.388;2024-01-16T12:15:22;0.80;;;0.23;;
21546;SDS011;41275;51.912;4.388;2024-01-16T12:20:43;3.23;;;0.40;;
21546;SDS011;41275;51.912;4.388;2024-01-16T12:26:04;4.30;;;0.65;;
21546;SDS011;41275;51.912;4.388;2024-01-16T12:31:26;2.83;;;0.40;;
21546;SDS011;41275;51.912;4.388;2024-01-16T12:36:48;2.10;;;0.60;;
21546;SDS011;41275;51.912;4.388;2024-01-16T12:42:25;2.38;;;0.38;;
21546;SDS011;41275;51.912;4.388;2024-01-16T12:47:52;1.35;;;0.10;;
21546;SDS011;41275;51.912;4.388;2024-01-16T12:53:14;8.55;;;0.70;;
21546;SDS011;41275;51.912;4.388;2024-01-16T12:58:37;3.25;;;0.40;;
21546;SDS011;41275;51.912;4.388;2024-01-16T13:04:03;1.10;;;0.20;;
21546;SDS011;41275;51.912;4.388;2024-01-16T13:09:24;1.70;;;0.30;;
21546;SDS011;41275;51.912;4.388;2024-01-16T13:14:47;3.50;;;0.50;;
21546;SDS011;41275;51.912;4.388;2024-01-16T13:20:08;3.33;;;0.70;;
21546;SDS011;41275;51.912;4.388;2024-01-16T13:25:31;2.60;;;0.40;;
21546;SDS011;41275;51.912;4.388;2024-01-16T13:30:52;1.08;;;0.40;;
21546;SDS011;41275;51.912;4.388;2024-01-16T13:36:13;1.05;;;0.20;;
21546;SDS011;41275;51.912;4.388;2024-01-16T13:41:35;4.38;;;0.60;;
21546;SDS011;41275;51.912;4.388;2024-01-16T13:46:56;4.10;;;0.40;;
21546;SDS011;41275;51.912;4.388;2024-01-16T13:52:17;3.03;;;0.60;;
21546;SDS011;41275;51.912;4.388;2024-01-16T13:57:39;2.60;;;0.50;;
21546;SDS011;41275;51.912;4.388;2024-01-16T14:03:00;3.45;;;0.60;;
21546;SDS011;41275;51.912;4.388;2024-01-16T14:08:24;1.50;;;0.50;;
21546;SDS011;41275;51.912;4.388;2024-01-16T14:13:45;2.47;;;0.73;;
21546;SDS011;41275;51.912;4.388;2024-01-16T14:19:06;1.70;;;0.80;;
21546;SDS011;41275;51.912;4.388;2024-01-16T14:24:27;4.60;;;1.17;;
21546;SDS011;41275;51.912;4.388;2024-01-16T14:29:48;5.53;;;1.58;;
21546;SDS011;41275;51.912;4.388;2024-01-16T14:35:10;7.20;;;1.83;;
21546;SDS011;41275;51.912;4.388;2024-01-16T14:40:33;3.40;;;0.60;;
21546;SDS011;41275;51.912;4.388;2024-01-16T14:45:55;3.72;;;0.90;;
21546;SDS011;41275;51.912;4.388;2024-01-16T14:51:19;2.33;;;0.70;;
21546;SDS011;41275;51.912;4.388;2024-01-16T14:56:40;3.10;;;0.60;;
21546;SDS011;41275;51.912;4.388;2024-01-16T15:02:01;4.22;;;1.25;;
21546;SDS011;41275;51.912;4.388;2024-01-16T15:07:33;2.80;;;0.90;;
21546;SDS011;41275;51.912;4.388;2024-01-16T15:12:55;2.22;;;0.77;;
21546;SDS011;41275;51.912;4.388;2024-01-16T15:18:16;3.17;;;0.50;;
21546;SDS011;41275;51.912;4.388;2024-01-16T15:23:38;4.93;;;1.00;;
21546;SDS011;41275;51.912;4.388;2024-01-16T15:28:59;1.50;;;0.55;;
21546;SDS011;41275;51.912;4.388;2024-01-16T15:34:21;2.85;;;0.70;;
21546;SDS011;41275;51.912;4.388;2024-01-16T15:39:42;3.03;;;0.70;;
21546;SDS011;41275;51.912;4.388;2024-01-16T15:45:03;2.58;;;0.52;;
21546;SDS011;41275;51.912;4.388;2024-01-16T15:50:27;3.58;;;0.60;;
21546;SDS011;41275;51.912;4.388;2024-01-16T15:55:49;5.72;;;1.02;;
21546;SDS011;41275;51.912;4.388;2024-01-16T16:01:10;4.35;;;1.10;;
21546;SDS011;41275;51.912;4.388;2024-01-16T16:06:35;3.05;;;0.80;;
21546;SDS011;41275;51.912;4.388;2024-01-16T16:11:56;5.13;;;0.90;;
21546;SDS011;41275;51.912;4.388;2024-01-16T16:17:18;6.30;;;1.15;;
21546;SDS011;41275;51.912;4.388;2024-01-16T16:22:39;2.70;;;0.95;;
21546;SDS011;41275;51.912;4.388;2024-01-16T16:28:00;3.50;;;0.70;;
21546;SDS011;41275;51.912;4.388;2024-01-16T16:33:22;3.67;;;1.15;;
21546;SDS011;41275;51.912;4.388;2024-01-16T16:38:44;3.38;;;1.00;;
21546;SDS011;41275;51.912;4.388;2024-01-16T16:44:05;5.25;;;0.93;;
21546;SDS011;41275;51.912;4.388;2024-01-16T16:49:27;2.60;;;1.00;;
21546;SDS011;41275;51.912;4.388;2024-01-16T16:54:48;2.25;;;0.80;;
21546;SDS011;41275;51.912;4.388;2024-01-16T17:00:09;2.38;;;0.85;;
21546;SDS011;41275;51.912;4.388;2024-01-16T17:05:34;1.93;;;0.77;;
21546;SDS011;41275;51.912;4.388;2024-01-16T17:10:55;2.97;;;0.93;;
21546;SDS011;41275;51.912;4.388;2024-01-16T17:16:16;5.23;;;1.10;;
21546;SDS011;41275;51.912;4.388;2024-01-16T17:21:43;3.55;;;1.20;;
21546;SDS011;41275;51.912;4.388;2024-01-16T17:27:04;3.00;;;1.30;;
21546;SDS011;41275;51.912;4.388;2024-01-16T17:32:25;4.68;;;1.27;;
21546;SDS011;41275;51.912;4.388;2024-01-16T17:37:47;4.27;;;1.57;;
21546;SDS011;41275;51.912;4.388;2024-01-16T17:43:08;5.68;;;1.77;;
21546;SDS011;41275;51.912;4.388;2024-01-16T17:48:30;4.45;;;1.50;;
21546;SDS011;41275;51.912;4.388;2024-01-16T17:53:54;6.22;;;2.03;;
21546;SDS011;41275;51.912;4.388;2024-01-16T17:59:15;7.15;;;1.60;;
21546;SDS011;41275;51.912;4.388;2024-01-16T18:04:40;4.55;;;1.88;;
21546;SDS011;41275;51.912;4.388;2024-01-16T18:10:01;3.83;;;1.67;;
21546;SDS011;41275;51.912;4.388;2024-01-16T18:15:23;10.00;;;2.20;;
21546;SDS011;41275;51.912;4.388;2024-01-16T18:20:44;5.97;;;2.10;;
21546;SDS011;41275;51.912;4.388;2024-01-16T18:26:06;6.33;;;2.33;;
21546;SDS011;41275;51.912;4.388;2024-01-16T18:31:28;6.22;;;2.75;;
21546;SDS011;41275;51.912;4.388;2024-01-16T18:36:51;7.20;;;2.75;;
21546;SDS011;41275;51.912;4.388;2024-01-16T18:42:14;4.85;;;1.75;;
21546;SDS011;41275;51.912;4.388;2024-01-16T18:47:35;5.43;;;1.95;;
21546;SDS011;41275;51.912;4.388;2024-01-16T18:53:01;4.95;;;2.15;;
21546;SDS011;41275;51.912;4.388;2024-01-16T18:58:22;5.67;;;1.80;;
21546;SDS011;41275;51.912;4.388;2024-01-16T19:03:43;4.80;;;1.87;;
21546;SDS011;41275;51.912;4.388;2024-01-16T19:09:04;4.25;;;1.77;;
21546;SDS011;41275;51.912;4.388;2024-01-16T19:14:26;4.15;;;1.80;;
21546;SDS011;41275;51.912;4.388;2024-01-16T19:19:47;5.00;;;1.85;;
21546;SDS011;41275;51.912;4.388;2024-01-16T19:25:08;7.18;;;1.83;;
21546;SDS011;41275;51.912;4.388;2024-01-16T19:30:31;8.00;;;2.17;;
21546;SDS011;41275;51.912;4.388;2024-01-16T19:35:53;4.15;;;1.65;;
21546;SDS011;41275;51.912;4.388;2024-01-16T19:41:16;11.33;;;2.00;;
21546;SDS011;41275;51.912;4.388;2024-01-16T19:46:41;6.57;;;1.92;;
21546;SDS011;41275;51.912;4.388;2024-01-16T19:52:03;5.82;;;1.70;;
21546;SDS011;41275;51.912;4.388;2024-01-16T19:57:24;6.22;;;1.88;;
21546;SDS011;41275;51.912;4.388;2024-01-16T20:02:46;7.22;;;1.95;;
21546;SDS011;41275;51.912;4.388;2024-01-16T20:08:07;7.13;;;2.20;;
21546;SDS011;41275;51.912;4.388;2024-01-16T20:13:31;4.75;;;1.75;;
21546;SDS011;41275;51.912;4.388;2024-01-16T20:18:53;5.97;;;2.08;;
21546;SDS011;41275;51.912;4.388;2024-01-16T20:24:17;4.18;;;1.73;;
21546;SDS011;41275;51.912;4.388;2024-01-16T20:29:38;5.68;;;2.08;;
21546;SDS011;41275;51.912;4.388;2024-01-16T20:34:59;6.03;;;2.10;;
21546;SDS011;41275;51.912;4.388;2024-01-16T20:40:20;9.63;;;2.23;;
21546;SDS011;41275;51.912;4.388;2024-01-16T20:45:42;7.75;;;2.55;;
21546;SDS011;41275;51.912;4.388;2024-01-16T20:51:03;5.53;;;2.40;;
21546;SDS011;41275;51.912;4.388;2024-01-16T20:56:25;5.53;;;2.42;;
21546;SDS011;41275;51.912;4.388;2024-01-16T21:01:46;8.50;;;3.00;;
21546;SDS011;41275;51.912;4.388;2024-01-16T21:07:08;13.53;;;3.53;;
21546;SDS011;41275;51.912;4.388;2024-01-16T21:12:29;7.93;;;3.15;;
21546;SDS011;41275;51.912;4.388;2024-01-16T21:17:50;8.20;;;2.72;;
21546;SDS011;41275;51.912;4.388;2024-01-16T21:23:12;7.80;;;3.33;;
21546;SDS011;41275;51.912;4.388;2024-01-16T21:28:34;7.87;;;3.00;;
21546;SDS011;41275;51.912;4.388;2024-01-16T21:33:56;9.05;;;3.13;;
21546;SDS011;41275;51.912;4.388;2024-01-16T21:39:19;5.30;;;2.63;;
21546;SDS011;41275;51.912;4.388;2024-01-16T21:44:41;7.05;;;2.72;;
21546;SDS011;41275;51.912;4.388;2024-01-16T21:50:03;8.98;;;3.03;;
21546;SDS011;41275;51.912;4.388;2024-01-16T21:55:25;10.27;;;3.40;;
21546;SDS011;41275;51.912;4.388;2024-01-16T22:00:46;8.73;;;3.53;;
21546;SDS011;41275;51.912;4.388;2024-01-16T22:06:07;7.78;;;3.00;;
21546;SDS011;41275;51.912;4.388;2024-01-16T22:11:29;7.82;;;3.38;;
21546;SDS011;41275;51.912;4.388;2024-01-16T22:16:50;6.47;;;3.05;;
21546;SDS011;41275;51.912;4.388;2024-01-16T22:22:12;9.47;;;3.70;;
21546;SDS011;41275;51.912;4.388;2024-01-16T22:27:33;7.80;;;3.13;;
21546;SDS011;41275;51.912;4.388;2024-01-16T22:32:54;9.40;;;3.47;;
21546;SDS011;41275;51.912;4.388;2024-01-16T22:38:16;8.73;;;4.00;;
21546;SDS011;41275;51.912;4.388;2024-01-16T22:43:39;8.88;;;3.80;;
21546;SDS011;41275;51.912;4.388;2024-01-16T22:49:00;6.95;;;3.80;;
21546;SDS011;41275;51.912;4.388;2024-01-16T22:54:21;9.32;;;3.60;;
21546;SDS011;41275;51.912;4.388;2024-01-16T22:59:42;7.07;;;3.53;;
21546;SDS011;41275;51.912;4.388;2024-01-16T23:05:04;7.53;;;4.03;;
21546;SDS011;41275;51.912;4.388;2024-01-16T23:10:25;8.93;;;4.20;;
21546;SDS011;41275;51.912;4.388;2024-01-16T23:15:46;9.77;;;3.93;;
21546;SDS011;41275;51.912;4.388;2024-01-16T23:21:10;10.43;;;4.27;;
21546;SDS011;41275;51.912;4.388;2024-01-16T23:26:33;9.83;;;4.00;;
21546;SDS011;41275;51.912;4.388;2024-01-16T23:31:55;10.80;;;4.67;;
21546;SDS011;41275;51.912;4.388;2024-01-16T23:37:17;9.35;;;4.35;;
21546;SDS011;41275;51.912;4.388;2024-01-16T23:42:44;10.60;;;4.68;;
21546;SDS011;41275;51.912;4.388;2024-01-16T23:48:05;11.00;;;4.30;;
21546;SDS011;41275;51.912;4.388;2024-01-16T23:53:27;10.77;;;5.50;;
21546;SDS011;41275;51.912;4.388;2024-01-16T23:58:48;10.47;;;5.27;;
